• Join FlightAware (Why Join?)
  • Login
  • US Flag 
11:15AM EDT


 

Airport Tracker/Info


-or-


 

Live Flight TrackerFlight Track Log ✈ N960DL ✈ 30-Apr-2013 ✈ KATL - KORD

Flight Track Log - Related Links

Times and Time Zones

All times are in EDT time to prevent confusion due to time zone crossing. See the N960DL flight status page for this flight to view local times or setup timezone preferences in your user account.

Time Position Orientation Groundspeed Altitude Reporting Facility
EDT Latitude Longitude Course Direction KTS MPH feet Rate Location/Type
04:07PM 33.6500 -84.3667 320° Northwest 206 237 2,700  Level Atlanta TRACON
04:08PM 33.6667 -84.2833 76° East 266 306 5,200 2,700 Climbing Atlanta TRACON
04:09PM 33.8113 -84.1667 North  Level FlightAware Approximate
04:09PM 33.7333 -84.2667 12° North 282 325 8,100  Level Atlanta TRACON
04:10PM 33.9041 -84.2374 320° Northwest  Level FlightAware Approximate
04:10PM 33.8628 -84.3214 341° North 312 359 11,600  Level Atlanta Center
04:11PM 33.9918 -84.3251 320° Northwest  Level FlightAware Approximate
04:11PM 33.9567 -84.3794 333° Northwest 355 409 13,300  Level Atlanta Center
04:12PM 34.0795 -84.4129 320° Northwest  Level FlightAware Approximate
04:12PM 34.0567 -84.4475 331° Northwest 376 433 16,100  Level Atlanta Center
04:13PM 34.1567 -84.5083 333° Northwest 409 471 18,200 2,040 Climbing Atlanta Center
04:14PM 34.2606 -84.5767 331° Northwest 430 495 20,200 1,800 Climbing Atlanta Center
04:15PM 34.3817 -84.6025 350° North 430 495 21,900 1,380 Climbing Atlanta Center
04:16PM 34.5172 -84.6136 356° North 438 504 23,000 600 Climbing Atlanta Center
04:17PM 34.6444 -84.6244 356° North 447 514 23,100 900 Climbing Atlanta Center
04:18PM 34.7550 -84.6356 355° North 447 514 24,800 1,860 Climbing Atlanta Center
04:19PM 34.8800 -84.6439 357° North 447 514 26,900 1,560 Climbing Atlanta Center
04:20PM 35.0072 -84.6550 356° North 447 514 28,000 540 Climbing Atlanta Center
04:21PM 35.1325 -84.6661 356° North 447 514 28,000  Level Atlanta Center
04:22PM 35.2575 -84.6772 356° North 447 514 28,000  Level Atlanta Center
04:23PM 35.3828 -84.6883 356° North 447 514 28,000 300 Level Atlanta Center
04:24PM 35.5058 -84.6994 356° North 442 509 28,700 1,080 Climbing Atlanta Center
04:25PM 35.6331 -84.7081 357° North 442 509 30,200 1,320 Climbing Atlanta Center
04:26PM 35.7581 -84.7194 356° North 442 509 31,400 1,200 Climbing Atlanta Center
04:27PM 35.8833 -84.7256 358° North 442 509 32,600 900 Climbing Atlanta Center
04:29PM 36.1214 -84.7517 355° North 447 514 34,000 480 Climbing Indianapolis Center
04:30PM 36.2436 -84.7636 355° North 442 509 34,000  Level Indianapolis Center
04:31PM 36.3642 -84.7753 356° North 437 503 34,000  Level Indianapolis Center
04:32PM 36.4864 -84.7631 North 444 511 34,000  Level Indianapolis Center
04:33PM 36.6342 -84.7211 13° North 453 521 34,000  Level Indianapolis Center
04:34PM 36.7567 -84.6856 13° North 452 520 34,000  Level Indianapolis Center
04:36PM 36.8786 -84.6486 14° North 451 519 34,000  Level Indianapolis Center
04:37PM 37.0008 -84.6131 13° North 451 519 34,000  Level Indianapolis Center
04:38PM 37.1328 -84.5739 13° North 445 512 34,000  Level Indianapolis Center
04:39PM 37.2539 -84.5381 13° North 446 513 34,000  Level Indianapolis Center
04:40PM 37.3739 -84.5017 14° North 443 510 34,000  Level Indianapolis Center
04:41PM 37.4956 -84.4639 14° North 445 512 34,000  Level Indianapolis Center
04:42PM 37.6167 -84.4822 353° North 441 507 34,000  Level Indianapolis Center
04:43PM 37.7514 -84.5356 343° North 432 497 34,000  Level Indianapolis Center
04:44PM 37.8669 -84.5836 342° North 434 499 34,000  Level Indianapolis Center
04:45PM 37.9831 -84.6308 342° North 437 503 34,000  Level Indianapolis Center
04:46PM 38.0992 -84.6775 342° North 437 503 34,000  Level Indianapolis Center
04:47PM 38.2183 -84.7242 343° North 444 511 34,000  Level Indianapolis Center
04:48PM 38.3561 -84.7783 343° North 442 509 34,000  Level Indianapolis Center
04:49PM 38.4742 -84.8250 343° North 443 510 34,000  Level Indianapolis Center
04:50PM 38.5900 -84.8744 342° North 440 506 34,000 -180 Level Indianapolis Center
04:51PM 38.7025 -84.9192 343° North 442 509 33,700 -540 Descending Indianapolis Center
04:52PM 38.8189 -84.9669 342° North 438 504 32,900 -1,260 Descending Indianapolis Center
04:53PM 38.9547 -85.0236 342° North 438 504 31,100 -1,740 Descending Indianapolis Center
04:54PM 39.0719 -85.0719 342° North 439 505 29,400 -1,500 Descending Indianapolis Center
04:55PM 39.1903 -85.1217 342° North 444 511 28,000 -720 Descending Indianapolis Center
04:56PM 39.3083 -85.1722 342° North 444 511 28,000  Level Indianapolis Center
04:57PM 39.4283 -85.2222 342° North 450 518 28,000  Level Indianapolis Center
04:58PM 39.5481 -85.2711 343° North 449 517 28,000  Level Indianapolis Center
04:59PM 39.6861 -85.3306 342° North 447 514 28,000  Level Indianapolis Center
05:00PM 39.8044 -85.3803 342° North 446 513 28,000 -960 Level Indianapolis Center
05:01PM 39.9206 -85.4300 342° North 441 507 26,100 -1,920 Descending Indianapolis Center
05:02PM 40.0339 -85.4781 342° North 430 495 24,100 -1,140 Descending Indianapolis Center
05:03PM 40.1458 -85.5236 343° North 426 490 24,000 -60 Descending Chicago Center
05:04PM 40.2569 -85.5719 342° North 422 486 24,000  Level Chicago Center
05:05PM 40.3500 -85.6622 324° Northwest 424 488 24,000 -300 Level Chicago Center
05:06PM 40.4267 -85.7750 312° West 414 476 23,400 -1,020 Descending Chicago Center
05:07PM 40.5033 -85.8883 312° West 414 476 22,000 -1,320 Descending Chicago Center
05:08PM 40.5778 -85.9992 312° West 406 467 20,700 -1,020 Descending Chicago Center
05:09PM 40.6631 -86.1261 312° West 395 455 20,000 -360 Descending Chicago Center
05:11PM 40.7317 -86.2286 311° West 395 455 20,000  Level Chicago Center
05:12PM 40.8042 -86.3378 311° West 396 456 20,000  Level Chicago Center
05:13PM 40.8750 -86.4444 311° West 388 447 20,000  Level Chicago Center
05:14PM 40.9469 -86.5533 311° West 392 451 20,000 -60 Level Chicago Center
05:15PM 41.0331 -86.6833 311° West 393 452 19,900 -840 Descending Chicago Center
05:16PM 41.1042 -86.7886 312° West 385 443 18,300 -1,740 Descending Chicago Center
05:17PM 41.1706 -86.8911 311° West 374 430 16,300 -2,100 Descending Chicago Center
05:18PM 41.2367 -86.9878 312° West 361 415 14,000 -2,040 Descending Chicago Center
05:19PM 41.2956 -87.0853 309° West 346 398 12,100 -1,500 Descending Chicago Center
05:20PM 41.3675 -87.1947 311° West 333 383 11,000 -600 Descending Chicago Center
05:21PM 41.4333 -87.2667 321° Northwest 334 384 11,000  Level Chicago TRACON
05:22PM 41.5000 -87.3500 317° Northwest 331 381 11,000  Level Chicago TRACON
05:23PM 41.5667 -87.4333 317° Northwest 332 382 11,000  Level Chicago TRACON
05:23PM 41.5728 -87.4381 330° Northwest 332 382 11,000  Level Chicago Center
05:24PM 41.6575 -87.5325 320° Northwest 335 386 11,000 -60 Level Chicago Center
05:25PM 41.7228 -87.6100 318° Northwest 319 367 10,900 -840 Descending Chicago Center
05:26PM 41.7667 -87.6500 326° Northwest 290 334 9,600 -1,860 Descending Chicago TRACON
05:27PM 41.8167 -87.7167 315° West 291 335 8,000 -1,380 Descending Chicago TRACON
05:28PM 41.9000 -87.7333 352° North 304 350 7,000 -600 Descending Chicago TRACON
05:29PM 41.9833 -87.7333 360° North 285 328 6,900 -840 Descending Chicago TRACON
05:30PM 42.0500 -87.7000 20° North 260 299 5,400 -1,500 Descending Chicago TRACON
05:31PM 42.1167 -87.7167 349° North 235 270 3,900 -1,260 Descending Chicago TRACON
05:32PM 42.1000 -87.7833 251° West 196 226 3,000 -1,020 Descending Chicago TRACON